createdAt,value
2023-03-08T00:54:55.922Z,455.00
2023-03-08T00:55:56.873Z,455.00
2023-03-08T00:56:56.866Z,455.00
2023-03-08T00:57:56.850Z,455.00
2023-03-08T00:58:56.847Z,458.00
2023-03-08T00:59:56.836Z,458.00
2023-03-08T01:00:56.872Z,454.00
2023-03-08T01:01:56.829Z,455.00
2023-03-08T01:02:56.807Z,456.00
2023-03-08T01:03:56.823Z,460.00
2023-03-08T01:04:56.793Z,457.00
2023-03-08T01:05:56.788Z,459.00
2023-03-08T01:06:56.777Z,459.00
2023-03-08T01:07:56.763Z,462.00
2023-03-08T01:08:56.754Z,461.00
2023-03-08T01:09:56.751Z,460.00
2023-03-08T01:11:56.731Z,456.00
2023-03-08T01:12:56.729Z,457.00
2023-03-08T01:13:56.716Z,454.00
2023-03-08T01:14:56.698Z,453.00
2023-03-08T01:15:56.709Z,454.00
2023-03-08T01:16:56.687Z,452.00
2023-03-08T01:17:56.675Z,452.00
2023-03-08T01:18:56.669Z,452.00
2023-03-08T01:19:56.668Z,455.00
2023-03-08T01:20:56.653Z,457.00
2023-03-08T01:21:56.639Z,459.00
2023-03-08T01:22:56.637Z,460.00
2023-03-08T01:23:56.625Z,458.00
2023-03-08T01:24:56.619Z,455.00
2023-03-08T01:25:56.606Z,455.00
2023-03-08T01:26:56.622Z,456.00
2023-03-08T01:27:56.591Z,453.00
2023-03-08T01:28:56.586Z,450.00
2023-03-08T01:29:56.574Z,449.00
2023-03-08T01:30:56.568Z,446.00
2023-03-08T01:31:56.561Z,448.00
2023-03-08T01:32:56.544Z,447.00
2023-03-08T01:33:56.539Z,446.00
2023-03-08T01:34:56.533Z,446.00
2023-03-08T01:35:56.555Z,445.00
2023-03-08T01:36:56.521Z,446.00
2023-03-08T01:37:56.509Z,446.00
2023-03-08T01:38:56.495Z,447.00
2023-03-08T01:39:56.484Z,451.00
2023-03-08T01:40:56.478Z,451.00
2023-03-08T01:42:56.480Z,455.00
2023-03-08T04:26:55.009Z,447.00
2023-03-08T06:41:53.817Z,459.00
2023-03-08T07:00:53.691Z,712.00
2023-03-08T07:02:53.689Z,752.00
2023-03-08T07:08:53.607Z,875.00
2023-03-08T07:09:53.607Z,877.00
2023-03-08T07:15:53.607Z,935.00
2023-03-08T07:17:53.512Z,939.00
2023-03-08T07:23:53.469Z,961.00
2023-03-08T07:46:53.339Z,748.00
2023-03-08T07:52:08.816Z,753.00
2023-03-08T07:55:53.200Z,672.00
2023-03-08T08:11:53.090Z,533.00
2023-03-08T08:25:52.900Z,468.00
2023-03-08T08:29:52.873Z,463.00
2023-03-08T08:30:52.863Z,479.00
2023-03-08T08:38:08.470Z,576.00
2023-03-08T08:39:00.188Z,691.00
2023-03-08T08:57:53.250Z,879.00
2023-03-08T08:59:52.603Z,898.00
2023-03-08T09:02:53.048Z,923.00
2023-03-08T09:12:09.504Z,856.00
2023-03-08T09:13:10.542Z,777.00
2023-03-08T09:14:10.495Z,785.00
2023-03-08T09:15:10.478Z,793.00
2023-03-08T09:16:10.581Z,787.00
2023-03-08T09:17:10.465Z,777.00
2023-03-08T09:18:10.457Z,737.00
2023-03-08T09:19:11.450Z,739.00
2023-03-08T09:20:10.449Z,738.00
2023-03-08T09:21:10.428Z,740.00
2023-03-08T09:22:10.471Z,741.00
2023-03-08T09:23:10.500Z,736.00
2023-03-08T09:24:10.417Z,734.00
2023-03-08T09:25:10.417Z,743.00
2023-03-08T09:26:10.386Z,744.00
2023-03-08T09:27:10.486Z,746.00
2023-03-08T09:28:10.367Z,744.00
2023-03-08T09:29:10.395Z,719.00
2023-03-08T09:30:10.374Z,734.00
2023-03-08T09:31:10.340Z,731.00
2023-03-08T09:32:10.665Z,716.00
2023-03-08T09:33:10.327Z,705.00
2023-03-08T09:34:10.318Z,700.00
2023-03-08T09:35:10.312Z,678.00
2023-03-08T09:36:10.315Z,698.00
2023-03-08T09:37:10.294Z,728.00
2023-03-08T09:38:10.483Z,743.00
2023-03-08T09:39:10.308Z,793.00
2023-03-08T09:40:10.302Z,797.00
2023-03-08T09:41:10.314Z,791.00
2023-03-08T09:42:10.251Z,792.00
2023-03-08T09:43:10.693Z,802.00
2023-03-08T09:44:11.586Z,814.00
2023-03-08T09:45:13.440Z,809.00
2023-03-08T09:46:10.261Z,742.00
2023-03-08T09:47:10.220Z,738.00
2023-03-08T09:48:10.241Z,722.00
2023-03-08T09:49:10.547Z,721.00
2023-03-08T09:50:10.196Z,716.00
2023-03-08T09:51:10.177Z,705.00
2023-03-08T09:52:10.176Z,699.00
2023-03-08T09:53:10.159Z,696.00
2023-03-08T09:54:10.486Z,690.00
2023-03-08T09:55:09.202Z,691.00
2023-03-08T09:56:10.127Z,677.00
2023-03-08T09:57:10.277Z,669.00
2023-03-08T09:58:10.116Z,666.00
2023-03-08T09:59:10.486Z,660.00
2023-03-08T10:00:10.092Z,658.00
2023-03-08T10:01:10.235Z,657.00
2023-03-08T10:02:10.073Z,654.00
2023-03-08T10:03:10.519Z,674.00
2023-03-08T10:04:10.100Z,683.00
2023-03-08T10:05:13.588Z,690.00
2023-03-08T10:06:10.032Z,692.00
2023-03-08T10:07:10.027Z,694.00
2023-03-08T10:08:10.025Z,692.00
2023-03-08T10:09:10.007Z,691.00
2023-03-08T10:10:10.486Z,699.00
2023-03-08T10:11:09.991Z,701.00
2023-03-08T10:12:13.468Z,698.00
2023-03-08T10:13:09.997Z,701.00
2023-03-08T10:14:10.906Z,700.00
2023-03-08T10:15:10.485Z,699.00
2023-03-08T10:16:09.941Z,697.00
2023-03-08T10:17:10.395Z,696.00
2023-03-08T10:18:09.931Z,700.00
2023-03-08T10:19:09.985Z,692.00
2023-03-08T10:20:10.273Z,695.00
2023-03-08T10:21:10.594Z,692.00
2023-03-08T10:22:09.891Z,694.00
2023-03-08T10:23:09.883Z,700.00
2023-03-08T10:24:09.873Z,747.00
2023-03-08T10:25:09.865Z,757.00
2023-03-08T10:26:09.863Z,766.00
2023-03-08T10:27:09.996Z,786.00
2023-03-08T10:28:09.836Z,796.00
2023-03-08T10:29:09.885Z,800.00
2023-03-08T10:30:09.824Z,809.00
2023-03-08T10:31:09.835Z,816.00
2023-03-08T10:32:10.099Z,822.00
2023-03-08T10:33:09.815Z,830.00
2023-03-08T10:34:09.997Z,838.00
2023-03-08T10:35:09.782Z,831.00
2023-03-08T10:36:09.783Z,822.00
2023-03-08T10:37:10.005Z,804.00
2023-03-08T10:38:09.756Z,799.00
2023-03-08T10:39:09.753Z,796.00
2023-03-08T10:40:09.739Z,792.00
2023-03-08T10:41:09.728Z,788.00
2023-03-08T10:42:10.000Z,781.00
2023-03-08T10:43:09.711Z,776.00
2023-03-08T10:44:09.703Z,761.00
2023-03-08T10:45:09.771Z,750.00
2023-03-08T10:46:10.044Z,668.00
2023-03-08T10:47:09.673Z,652.00
2023-03-08T10:48:09.668Z,635.00
2023-03-08T10:49:09.666Z,626.00
2023-03-08T10:50:09.648Z,651.00
2023-03-08T10:51:09.640Z,677.00
2023-03-08T10:52:09.633Z,689.00
2023-03-08T10:53:09.631Z,703.00
2023-03-08T10:54:09.613Z,705.00
2023-03-08T10:55:09.604Z,708.00
2023-03-08T10:56:09.619Z,706.00
2023-03-08T10:57:09.590Z,746.00
2023-03-08T10:58:09.584Z,765.00
2023-03-08T10:59:09.572Z,771.00
2023-03-08T11:00:12.038Z,768.00
2023-03-08T11:01:10.035Z,776.00
2023-03-08T11:02:09.544Z,785.00
2023-03-08T11:03:09.538Z,803.00
2023-03-08T11:04:09.529Z,814.00
2023-03-08T11:05:09.518Z,818.00
2023-03-08T11:06:12.197Z,842.00
2023-03-08T11:07:09.498Z,854.00
2023-03-08T11:08:09.588Z,849.00
2023-03-08T11:09:09.481Z,845.00
2023-03-08T11:10:09.510Z,855.00
2023-03-08T11:11:09.498Z,865.00
2023-03-08T11:12:11.097Z,862.00
2023-03-08T11:13:09.444Z,861.00
2023-03-08T11:14:09.444Z,858.00
2023-03-08T11:15:09.425Z,858.00
2023-03-08T11:16:09.471Z,859.00
2023-03-08T11:17:09.445Z,860.00
2023-03-08T11:18:11.450Z,862.00
2023-03-08T11:19:09.532Z,858.00
2023-03-08T11:20:09.386Z,860.00
2023-03-08T11:21:09.380Z,855.00
2023-03-08T11:22:09.367Z,859.00
2023-03-08T11:23:09.513Z,860.00
2023-03-08T11:24:09.392Z,863.00
2023-03-08T11:25:09.606Z,856.00
2023-03-08T11:26:09.339Z,843.00
2023-03-08T11:27:09.408Z,839.00
2023-03-08T11:28:09.469Z,845.00
2023-03-08T11:29:09.340Z,855.00
2023-03-08T11:30:11.691Z,865.00
2023-03-08T11:31:09.333Z,864.00
2023-03-08T11:32:09.345Z,867.00
2023-03-08T11:33:09.708Z,872.00
2023-03-08T11:34:09.341Z,887.00
2023-03-08T11:35:09.258Z,888.00
2023-03-08T11:36:10.960Z,893.00
2023-03-08T11:37:09.247Z,885.00
2023-03-08T11:38:09.223Z,877.00
2023-03-08T11:39:09.217Z,874.00
2023-03-08T11:40:09.211Z,868.00
2023-03-08T11:41:09.545Z,866.00
2023-03-08T11:42:10.973Z,859.00
2023-03-08T11:43:09.216Z,860.00
2023-03-08T11:44:09.649Z,870.00
2023-03-08T11:45:09.715Z,871.00
2023-03-08T11:46:09.567Z,869.00
2023-03-08T11:47:09.144Z,867.00
2023-03-08T11:48:10.836Z,859.00
2023-03-08T11:49:09.590Z,860.00
2023-03-08T11:50:09.117Z,859.00
2023-03-08T11:51:09.548Z,855.00
2023-03-08T11:52:09.554Z,858.00
2023-03-08T11:53:09.091Z,873.00
2023-03-08T11:54:09.084Z,876.00
2023-03-08T11:55:09.107Z,870.00
2023-03-08T11:56:09.067Z,869.00
2023-03-08T11:57:09.053Z,852.00
2023-03-08T11:58:09.047Z,845.00
2023-03-08T11:59:09.575Z,859.00
2023-03-08T12:00:09.027Z,861.00
2023-03-08T12:01:09.020Z,859.00
2023-03-08T12:02:09.011Z,850.00
2023-03-08T12:03:09.073Z,843.00
2023-03-08T12:04:09.191Z,868.00
2023-03-08T12:05:09.057Z,892.00
2023-03-08T12:06:22.723Z,877.00
2023-03-08T12:07:09.105Z,856.00
2023-03-08T12:08:08.986Z,864.00
2023-03-08T12:09:08.999Z,865.00
2023-03-08T12:10:08.989Z,869.00
2023-03-08T12:11:08.930Z,876.00
2023-03-08T12:12:09.030Z,874.00
2023-03-08T12:13:08.914Z,798.00
2023-03-08T12:14:08.903Z,742.00
2023-03-08T12:15:08.931Z,749.00
2023-03-08T12:16:08.911Z,778.00
2023-03-08T12:17:09.179Z,790.00
2023-03-08T12:18:08.871Z,811.00
2023-03-08T12:19:08.890Z,835.00
2023-03-08T12:20:08.848Z,786.00
2023-03-08T12:21:08.956Z,756.00
2023-03-08T12:22:09.036Z,727.00
2023-03-08T12:23:08.964Z,632.00
2023-03-08T12:24:09.105Z,662.00
2023-03-08T12:25:08.805Z,679.00
2023-03-08T12:26:08.794Z,696.00
2023-03-08T12:27:08.809Z,710.00
2023-03-08T12:28:08.814Z,735.00
2023-03-08T12:29:08.822Z,725.00
2023-03-08T12:30:08.771Z,727.00
2023-03-08T12:31:21.432Z,728.00
2023-03-08T12:32:09.257Z,729.00
2023-03-08T12:33:08.853Z,726.00
2023-03-08T12:34:11.326Z,721.00
2023-03-08T12:35:08.729Z,715.00
2023-03-08T12:36:08.812Z,714.00
2023-03-08T12:37:09.103Z,784.00
2023-03-08T12:38:08.770Z,745.00
2023-03-08T12:39:09.189Z,729.00
2023-03-08T12:40:08.715Z,718.00
2023-03-08T12:41:08.704Z,710.00
2023-03-08T12:42:09.065Z,702.00
2023-03-08T12:43:08.649Z,692.00
2023-03-08T12:44:08.645Z,686.00
2023-03-08T12:45:08.632Z,678.00
2023-03-08T12:46:08.738Z,663.00
2023-03-08T12:47:08.632Z,658.00
2023-03-08T12:48:08.615Z,656.00
2023-03-08T12:49:08.602Z,654.00
2023-03-08T12:50:08.591Z,651.00
2023-03-08T12:51:09.075Z,648.00
2023-03-08T12:52:08.609Z,645.00
2023-03-08T12:53:08.593Z,642.00
2023-03-08T12:54:09.083Z,640.00
2023-03-08T12:55:08.548Z,636.00
2023-03-08T12:56:08.538Z,635.00
2023-03-08T12:57:08.530Z,634.00
2023-03-08T12:58:08.518Z,632.00
2023-03-08T12:59:08.514Z,632.00
2023-03-08T13:00:08.508Z,649.00
2023-03-08T13:01:08.596Z,640.00
2023-03-08T13:02:08.498Z,631.00
2023-03-08T13:03:08.579Z,625.00
2023-03-08T13:04:08.491Z,624.00
2023-03-08T13:05:08.513Z,685.00
2023-03-08T13:06:08.452Z,657.00
2023-03-08T13:07:08.448Z,648.00
2023-03-08T13:08:08.435Z,635.00
2023-03-08T13:09:08.505Z,625.00
2023-03-08T13:10:08.413Z,628.00
2023-03-08T13:11:08.560Z,652.00
2023-03-08T13:12:08.398Z,673.00
2023-03-08T13:13:08.410Z,680.00
2023-03-08T13:14:08.383Z,696.00
2023-03-08T13:15:08.414Z,709.00
2023-03-08T13:16:08.368Z,725.00
2023-03-08T13:17:08.358Z,752.00
2023-03-08T13:18:08.368Z,762.00
2023-03-08T13:19:08.407Z,770.00
2023-03-08T13:20:08.400Z,781.00
2023-03-08T13:21:08.567Z,795.00
2023-03-08T13:22:08.313Z,800.00
2023-03-08T13:23:08.468Z,800.00
2023-03-08T13:24:08.292Z,800.00
2023-03-08T13:25:08.367Z,800.00
2023-03-08T13:26:08.327Z,803.00
2023-03-08T13:27:08.268Z,803.00
2023-03-08T13:28:08.263Z,807.00
2023-03-08T13:29:08.356Z,805.00
2023-03-08T13:30:08.257Z,808.00
2023-03-08T13:31:08.320Z,816.00
2023-03-08T13:32:08.247Z,818.00
2023-03-08T13:33:08.213Z,821.00
2023-03-08T13:34:08.207Z,816.00
2023-03-08T13:35:08.207Z,818.00
2023-03-08T13:36:08.257Z,825.00
2023-03-08T13:37:08.184Z,828.00
2023-03-08T13:38:08.171Z,832.00
2023-03-08T13:39:08.164Z,829.00
2023-03-08T13:40:08.158Z,825.00
2023-03-08T13:41:08.631Z,820.00
2023-03-08T13:42:08.163Z,818.00
2023-03-08T13:43:08.152Z,806.00
2023-03-08T13:44:08.147Z,794.00
2023-03-08T13:45:08.111Z,803.00
2023-03-08T13:46:08.230Z,806.00
2023-03-08T13:47:09.562Z,808.00
2023-03-08T13:48:08.085Z,811.00
2023-03-08T13:49:08.073Z,812.00
2023-03-08T13:50:08.070Z,818.00
2023-03-08T13:51:08.146Z,843.00
2023-03-08T13:52:08.049Z,843.00
2023-03-08T13:53:08.058Z,829.00
2023-03-08T13:54:08.117Z,806.00
2023-03-08T13:55:08.122Z,778.00
2023-03-08T13:56:08.039Z,765.00
2023-03-08T13:57:08.061Z,754.00
2023-03-08T13:58:08.058Z,682.00
2023-03-08T13:59:08.040Z,686.00
2023-03-08T14:00:08.045Z,684.00
2023-03-08T14:01:08.011Z,685.00
2023-03-08T14:02:08.097Z,683.00
2023-03-08T14:03:08.063Z,675.00
2023-03-08T14:04:08.212Z,664.00
2023-03-08T14:05:07.941Z,654.00
2023-03-08T14:06:08.049Z,641.00
2023-03-08T14:07:07.918Z,616.00
2023-03-08T14:08:07.931Z,607.00
2023-03-08T14:09:07.901Z,603.00
2023-03-08T14:10:07.890Z,597.00
2023-03-08T14:11:07.881Z,589.00
2023-03-08T14:12:07.912Z,583.00
2023-03-08T14:13:07.904Z,571.00
2023-03-08T14:14:07.896Z,567.00
2023-03-08T14:15:07.921Z,562.00
2023-03-08T14:16:07.932Z,559.00
2023-03-08T14:17:07.875Z,556.00
2023-03-08T14:18:07.884Z,555.00
2023-03-08T14:19:07.956Z,551.00
2023-03-08T14:20:07.842Z,545.00
2023-03-08T14:21:07.933Z,536.00
2023-03-08T14:22:07.803Z,529.00
2023-03-08T14:23:07.834Z,524.00
2023-03-08T14:24:07.780Z,520.00
2023-03-08T14:25:07.836Z,518.00
2023-03-08T14:26:07.755Z,518.00
2023-03-08T14:27:07.742Z,518.00
2023-03-08T14:28:07.769Z,515.00
2023-03-08T14:29:08.133Z,512.00
2023-03-08T14:30:07.713Z,509.00
2023-03-08T14:31:07.848Z,507.00
2023-03-08T14:32:07.892Z,502.00
2023-03-08T14:33:07.687Z,497.00
2023-03-08T14:34:08.082Z,496.00
2023-03-08T14:35:07.688Z,493.00
2023-03-08T14:36:07.710Z,488.00
2023-03-08T14:37:07.653Z,486.00
2023-03-08T14:38:07.643Z,485.00
2023-03-08T14:39:08.088Z,483.00
2023-03-08T14:40:07.624Z,482.00
2023-03-08T14:41:07.622Z,477.00
2023-03-08T14:42:07.698Z,476.00
2023-03-08T14:43:07.603Z,476.00
2023-03-08T14:44:07.600Z,476.00
2023-03-08T14:45:07.617Z,476.00
2023-03-08T14:46:07.685Z,475.00
2023-03-08T14:47:07.565Z,471.00
2023-03-08T14:48:07.552Z,471.00
2023-03-08T14:49:07.594Z,469.00
2023-03-08T14:50:07.596Z,469.00
2023-03-08T14:51:07.582Z,466.00
2023-03-08T14:52:09.371Z,466.00
2023-03-08T14:53:07.589Z,463.00
2023-03-08T14:54:07.591Z,462.00
2023-03-08T14:55:07.486Z,458.00
2023-03-08T14:56:07.485Z,454.00
2023-03-08T14:57:07.471Z,453.00
2023-03-08T14:58:07.465Z,454.00
2023-03-08T14:59:10.412Z,453.00
2023-03-08T15:00:07.784Z,455.00
2023-03-08T15:01:07.472Z,446.00
2023-03-08T15:02:07.654Z,443.00
2023-03-08T15:03:07.425Z,445.00
2023-03-08T15:04:07.443Z,445.00
2023-03-08T15:05:07.400Z,447.00
2023-03-08T15:06:07.395Z,447.00
2023-03-08T15:07:07.385Z,446.00
2023-03-08T15:08:07.374Z,448.00
2023-03-08T15:09:07.367Z,449.00
2023-03-08T15:10:07.359Z,455.00
2023-03-08T15:11:07.359Z,458.00
2023-03-08T15:12:07.338Z,461.00
2023-03-08T15:13:07.350Z,459.00
2023-03-08T15:14:07.321Z,460.00
2023-03-08T15:15:07.309Z,459.00
2023-03-08T15:16:07.368Z,457.00
2023-03-08T15:17:07.382Z,458.00
2023-03-08T15:18:07.289Z,460.00
2023-03-08T15:19:07.597Z,460.00
2023-03-08T15:20:07.262Z,458.00
2023-03-08T15:21:14.226Z,455.00
2023-03-08T15:22:07.296Z,454.00
2023-03-08T15:23:07.247Z,453.00
2023-03-08T15:25:07.223Z,450.00
2023-03-08T15:34:07.700Z,438.00
2023-03-08T18:04:06.115Z,420.00
2023-03-08T18:05:06.195Z,418.00
2023-03-08T18:06:06.252Z,420.00
2023-03-08T18:07:06.020Z,422.00
2023-03-08T18:08:05.999Z,422.00
2023-03-08T18:09:06.010Z,423.00
2023-03-08T18:10:05.983Z,421.00
2023-03-08T18:11:06.534Z,421.00
2023-03-08T18:12:05.971Z,421.00
2023-03-08T18:13:05.992Z,421.00
2023-03-08T18:14:05.963Z,421.00
2023-03-08T18:15:05.938Z,421.00
2023-03-08T18:16:06.001Z,420.00
2023-03-08T18:17:05.925Z,419.00
2023-03-08T18:18:05.912Z,418.00
2023-03-08T18:19:05.912Z,417.00
2023-03-08T18:20:05.902Z,418.00
2023-03-08T18:21:13.072Z,418.00
2023-03-08T18:22:05.884Z,412.00
2023-03-08T18:23:05.869Z,411.00
2023-03-08T18:24:05.871Z,412.00
2023-03-08T18:25:05.872Z,413.00
2023-03-08T18:26:05.848Z,411.00
2023-03-08T18:27:05.844Z,411.00
2023-03-08T18:28:05.837Z,413.00
2023-03-08T18:29:05.924Z,411.00
2023-03-08T18:30:05.809Z,411.00
2023-03-08T18:31:05.850Z,412.00
2023-03-08T18:32:05.928Z,412.00
2023-03-08T18:33:06.704Z,411.00
2023-03-08T18:34:05.771Z,413.00
2023-03-08T18:35:05.762Z,412.00
2023-03-08T18:36:05.768Z,414.00
2023-03-08T18:37:05.744Z,413.00
2023-03-08T18:38:05.749Z,412.00
2023-03-08T18:39:05.801Z,412.00
2023-03-08T18:40:05.725Z,412.00
2023-03-08T18:41:05.713Z,412.00
2023-03-08T18:42:05.704Z,414.00
2023-03-08T18:43:05.700Z,415.00
2023-03-08T18:44:05.683Z,414.00
2023-03-08T18:45:05.759Z,415.00
2023-03-08T18:46:05.675Z,414.00
2023-03-08T18:47:05.660Z,412.00
2023-03-08T18:48:05.657Z,411.00
2023-03-08T18:49:05.639Z,413.00
2023-03-08T18:50:05.623Z,415.00
2023-03-08T18:51:05.619Z,414.00
2023-03-08T18:52:05.608Z,415.00
2023-03-08T18:53:05.598Z,416.00
2023-03-08T18:54:05.627Z,413.00
2023-03-08T18:55:05.579Z,413.00
2023-03-08T18:56:05.870Z,412.00
2023-03-08T18:57:05.579Z,411.00
2023-03-08T18:58:05.556Z,410.00
2023-03-08T18:59:05.547Z,407.00
2023-03-08T19:00:05.535Z,409.00
2023-03-08T19:01:05.633Z,408.00
2023-03-08T19:02:05.558Z,408.00
2023-03-08T19:03:05.513Z,407.00
2023-03-08T19:04:05.517Z,409.00
2023-03-08T19:05:05.497Z,409.00
2023-03-08T19:06:05.489Z,410.00
2023-03-08T19:07:05.478Z,409.00
2023-03-08T19:08:05.470Z,412.00
2023-03-08T19:09:05.460Z,412.00
2023-03-08T19:10:05.468Z,412.00
2023-03-08T19:11:05.445Z,413.00
2023-03-08T19:12:05.440Z,411.00
2023-03-08T19:13:05.425Z,412.00
2023-03-08T19:14:05.420Z,412.00
2023-03-08T19:15:05.411Z,411.00
2023-03-08T19:16:05.426Z,411.00
2023-03-08T19:17:05.421Z,411.00
2023-03-08T19:18:05.386Z,408.00
2023-03-08T19:19:05.375Z,407.00
2023-03-08T19:20:05.361Z,408.00
2023-03-08T19:21:05.358Z,408.00
2023-03-08T19:22:05.366Z,412.00
2023-03-08T19:23:05.344Z,412.00
2023-03-08T19:24:05.342Z,411.00
2023-03-08T19:25:05.324Z,412.00
2023-03-08T19:26:05.313Z,413.00
2023-03-08T19:27:05.309Z,414.00
2023-03-08T19:28:05.298Z,414.00
2023-03-08T19:29:05.376Z,414.00
2023-03-08T19:30:05.277Z,415.00
2023-03-08T19:31:05.267Z,413.00
2023-03-08T19:32:05.294Z,414.00
2023-03-08T19:33:05.272Z,412.00
2023-03-08T19:34:05.247Z,411.00
2023-03-08T19:35:05.233Z,413.00
2023-03-08T19:36:05.297Z,414.00
2023-03-08T19:37:05.217Z,415.00
2023-03-08T19:38:05.213Z,417.00
2023-03-08T19:39:05.222Z,415.00
2023-03-08T19:40:05.195Z,415.00
2023-03-08T19:41:05.181Z,413.00
2023-03-08T19:42:05.172Z,416.00
2023-03-08T19:43:05.163Z,418.00
2023-03-08T19:44:05.156Z,414.00
2023-03-08T19:45:05.151Z,413.00
2023-03-08T19:46:05.175Z,416.00
2023-03-08T19:47:05.144Z,417.00
2023-03-08T19:48:05.122Z,417.00
2023-03-08T19:49:05.257Z,415.00
2023-03-08T19:50:05.109Z,413.00
2023-03-08T19:51:05.144Z,411.00
2023-03-08T19:52:05.109Z,412.00
2023-03-08T19:53:05.078Z,413.00
2023-03-08T19:54:05.074Z,413.00
2023-03-08T19:55:05.090Z,412.00
2023-03-08T19:56:05.060Z,412.00
2023-03-08T19:57:05.056Z,414.00
2023-03-08T19:58:05.039Z,413.00
2023-03-08T19:59:05.030Z,412.00
2023-03-08T20:00:05.020Z,411.00
2023-03-08T20:01:05.047Z,410.00
2023-03-08T20:02:04.999Z,409.00
2023-03-08T20:03:04.996Z,407.00
2023-03-08T20:04:04.992Z,406.00
2023-03-08T20:05:05.003Z,406.00
2023-03-08T20:06:04.979Z,408.00
2023-03-08T20:07:05.006Z,412.00
2023-03-08T20:08:04.951Z,412.00
2023-03-08T20:09:04.941Z,413.00
2023-03-08T20:10:15.777Z,412.00
2023-03-08T20:11:04.925Z,412.00
2023-03-08T20:12:04.913Z,411.00
2023-03-08T20:13:04.946Z,415.00
2023-03-08T20:14:04.897Z,412.00
2023-03-08T20:15:04.887Z,412.00
2023-03-08T20:16:04.878Z,412.00
2023-03-08T20:17:04.972Z,410.00
2023-03-08T20:18:04.913Z,410.00
2023-03-08T20:19:04.913Z,412.00
2023-03-08T20:20:04.845Z,415.00
2023-03-08T20:21:04.872Z,417.00
2023-03-08T20:22:04.831Z,415.00
2023-03-08T20:23:04.814Z,414.00
2023-03-08T20:24:04.807Z,409.00
2023-03-08T20:25:04.800Z,410.00
2023-03-08T20:26:05.371Z,413.00
2023-03-08T20:27:04.785Z,413.00
2023-03-08T20:28:04.770Z,413.00
2023-03-08T20:29:04.766Z,415.00
2023-03-08T20:30:04.752Z,415.00
2023-03-08T20:31:04.764Z,415.00
2023-03-08T20:32:04.778Z,415.00
2023-03-08T20:33:04.724Z,415.00
2023-03-08T20:34:04.732Z,416.00
2023-03-08T20:35:04.706Z,416.00
2023-03-08T20:36:04.810Z,414.00
2023-03-08T20:37:04.709Z,413.00
2023-03-08T20:38:04.682Z,413.00
2023-03-08T20:39:04.677Z,413.00
2023-03-08T20:40:04.692Z,413.00
2023-03-08T20:41:04.659Z,411.00
2023-03-08T20:42:04.650Z,409.00
2023-03-08T20:43:04.639Z,410.00
2023-03-08T20:44:04.632Z,409.00
2023-03-08T20:45:04.628Z,411.00
2023-03-08T20:46:04.726Z,412.00
2023-03-08T20:47:04.597Z,410.00
2023-03-08T20:48:04.597Z,410.00
2023-03-08T20:49:04.586Z,411.00
2023-03-08T20:50:04.578Z,412.00
2023-03-08T20:51:04.569Z,411.00
2023-03-08T20:52:04.584Z,410.00
2023-03-08T20:53:04.574Z,411.00
2023-03-08T20:54:04.543Z,410.00
2023-03-08T20:55:04.825Z,410.00
2023-03-08T20:56:04.523Z,411.00
2023-03-08T20:57:04.525Z,410.00
2023-03-08T20:58:04.506Z,411.00
2023-03-08T20:59:04.505Z,412.00
2023-03-08T21:00:04.487Z,411.00
2023-03-08T21:01:04.519Z,412.00
2023-03-08T21:02:04.469Z,409.00
2023-03-08T21:03:04.464Z,407.00
2023-03-08T21:04:04.472Z,408.00
2023-03-08T21:05:04.448Z,409.00
2023-03-08T21:06:04.436Z,410.00
2023-03-08T21:07:04.428Z,409.00
2023-03-08T21:08:04.424Z,409.00
2023-03-08T21:09:04.469Z,410.00
2023-03-08T21:10:04.411Z,409.00
2023-03-08T21:11:04.396Z,408.00
2023-03-08T21:12:04.391Z,408.00
2023-03-08T21:13:04.375Z,409.00
2023-03-08T21:14:04.400Z,408.00
2023-03-08T21:15:05.188Z,408.00
2023-03-08T21:16:04.481Z,409.00
2023-03-08T21:17:04.347Z,410.00
2023-03-08T21:18:04.334Z,412.00
2023-03-08T21:19:04.398Z,413.00
2023-03-08T21:20:04.314Z,409.00
2023-03-08T21:21:04.303Z,410.00
2023-03-08T21:22:04.332Z,404.00
2023-03-08T21:23:04.292Z,403.00
2023-03-08T21:24:04.323Z,400.00
2023-03-08T21:25:04.306Z,399.00
2023-03-08T21:26:04.395Z,400.00
2023-03-08T21:27:04.274Z,399.00
2023-03-08T21:28:04.248Z,397.00
2023-03-08T21:29:04.233Z,397.00
2023-03-08T21:30:04.227Z,397.00
2023-03-08T21:31:04.285Z,400.00
2023-03-08T21:32:04.215Z,400.00
2023-03-08T21:33:04.195Z,403.00
2023-03-08T21:34:04.189Z,401.00
2023-03-08T21:35:04.235Z,399.00
2023-03-08T21:36:04.249Z,398.00
2023-03-08T21:37:04.160Z,399.00
2023-03-08T21:38:04.161Z,401.00
2023-03-08T21:39:04.148Z,401.00
2023-03-08T21:40:05.113Z,403.00
2023-03-08T21:41:04.156Z,402.00
2023-03-08T21:42:04.119Z,402.00
2023-03-08T21:43:04.105Z,402.00
2023-03-08T21:44:04.101Z,401.00
2023-03-08T21:45:04.090Z,401.00
2023-03-08T21:46:04.141Z,403.00
2023-03-08T21:47:04.069Z,406.00
2023-03-08T21:48:04.063Z,405.00
2023-03-08T21:49:04.080Z,402.00
2023-03-08T21:50:04.060Z,403.00
2023-03-08T21:51:04.047Z,405.00
2023-03-08T21:52:04.030Z,406.00
2023-03-08T21:53:04.030Z,402.00
2023-03-08T21:54:04.020Z,401.00
2023-03-08T21:55:04.006Z,399.00
2023-03-08T21:56:03.995Z,401.00
2023-03-08T21:57:04.008Z,400.00
2023-03-08T21:58:03.972Z,401.00
2023-03-08T21:59:03.984Z,402.00
2023-03-08T22:00:03.967Z,405.00
2023-03-08T22:01:03.947Z,404.00
2023-03-08T22:02:03.972Z,405.00
2023-03-08T22:03:04.038Z,403.00
2023-03-08T22:04:03.927Z,402.00
2023-03-08T22:05:03.919Z,398.00
2023-03-08T22:06:03.906Z,395.00
2023-03-08T22:07:03.900Z,394.00
2023-03-08T22:08:03.889Z,396.00
2023-03-08T22:09:03.890Z,396.00
2023-03-08T22:10:03.875Z,398.00
2023-03-08T22:11:03.871Z,398.00
2023-03-08T22:12:03.858Z,399.00
2023-03-08T22:13:03.895Z,400.00
2023-03-08T22:14:03.837Z,398.00
2023-03-08T22:15:03.822Z,399.00
2023-03-08T22:16:03.876Z,397.00
2023-03-08T22:17:03.817Z,398.00
2023-03-08T22:18:03.795Z,398.00
2023-03-08T22:19:03.792Z,400.00
2023-03-08T22:20:03.810Z,398.00
2023-03-08T22:21:03.772Z,401.00
2023-03-08T22:22:03.763Z,401.00
2023-03-08T22:23:03.754Z,401.00
2023-03-08T22:24:03.749Z,402.00
2023-03-08T22:25:03.737Z,401.00
2023-03-08T22:26:03.728Z,404.00
2023-03-08T22:27:03.719Z,405.00
2023-03-08T22:28:03.720Z,406.00
2023-03-08T22:29:03.738Z,407.00
2023-03-08T22:30:03.694Z,404.00
2023-03-08T22:31:03.764Z,401.00
2023-03-08T22:32:03.679Z,400.00
2023-03-08T22:33:03.668Z,397.00
2023-03-08T22:34:03.659Z,397.00
2023-03-08T22:35:03.651Z,399.00
2023-03-08T22:36:03.703Z,401.00
2023-03-08T22:37:03.641Z,401.00
2023-03-08T22:38:03.629Z,401.00
2023-03-08T22:39:03.625Z,399.00
2023-03-08T22:40:03.608Z,401.00
2023-03-08T22:41:03.605Z,403.00
2023-03-08T22:42:03.593Z,405.00
2023-03-08T22:43:03.589Z,405.00
2023-03-08T22:44:03.572Z,405.00
2023-03-08T22:45:03.598Z,403.00
2023-03-08T22:46:03.607Z,402.00
2023-03-08T22:47:03.552Z,399.00
2023-03-08T22:48:03.536Z,397.00
2023-03-08T22:49:03.530Z,397.00
2023-03-08T22:50:03.528Z,397.00
2023-03-08T22:51:10.713Z,400.00
2023-03-08T22:52:03.505Z,400.00
2023-03-08T22:53:03.510Z,402.00
2023-03-08T22:54:03.485Z,404.00
2023-03-08T22:55:03.476Z,403.00
2023-03-08T22:56:03.483Z,404.00
2023-03-08T22:57:03.463Z,405.00
2023-03-08T22:58:03.465Z,406.00
2023-03-08T22:59:03.490Z,407.00
2023-03-08T23:00:03.439Z,408.00
2023-03-08T23:01:03.465Z,409.00
2023-03-08T23:02:03.414Z,408.00
2023-03-08T23:03:03.497Z,407.00
2023-03-08T23:04:03.456Z,404.00
2023-03-08T23:05:03.390Z,405.00
2023-03-08T23:06:03.380Z,403.00
2023-03-08T23:07:03.373Z,407.00
2023-03-08T23:08:03.368Z,406.00
2023-03-08T23:09:03.354Z,405.00
2023-03-08T23:10:03.360Z,407.00